Indian Creek (Missouri), Lanagan (07188885)

StateMissouriLatestPoor (190 cfs)
RiverIndian CreekRatingObservedEstimated
Updated2026-05-05 6:15 (1 hour ago)Flood - The river is flooding. Obstacles can be treacherous or deadly. The river should be avoided at this stage for casual trips and definitely for the inexperienced. Trips should be attempted only with protective gear and equipment.Flood(none)1244
Discharge190 cfs (median: 256 cfs)High - The river is high and potentially dangerous, especially for the young and / or inexperienced. Normal stream obstacles are sometimes difficult to navigate. Extended distances can be attempted, but canoe travel may not be advisable.High(none)649
Height1.82 feetGood - Conditions are ideal for a canoe or kayak. Boats typically will drag on fewer than one-quarter of riffles, if at all, and portages are unnecessary or rare. Normal float lengths can be attempted without a problem.Good(none)334
TrendSteady (rising over 24 hours)Low - River is low but can still be floated. Some riffles are okay but most come with significant dragging and might need a portage. Float lengths should be reduced to accommodate low flow, dragging, and portages.Low(none)207
USGSExternal icon USGS Site (External icon Duck Duck Go Maps)Poor - River is too low to float comfortably. Most or all riffles will drag or must be portaged and some obstacles (such as slick shelf rock) cause undue problems. Avoid the river at this stage for casual paddling trips.Poor(none)61

Trending Data

Plot Image

Trips for Indian Creek (Missouri), Lanagan (07188885)

DateStartEndDistanceConditionDischargeHeightFishingDetails
Click for details2011-09-05 Anderson Lanagan Total trip distance: 3.8 miles3.8 Good 43 1.22 Fair SMB
RB
LSF
SMB, RB, LSF
East, Mitch
Fillmore, Brian
Leonard, Phil
Ligon, Day
Thompson, Denise
Tucker, Charlie
East, Mitch; Fillmore, Brian; Leonard, Phil; Ligon, Day; Thompson, Denise; Tucker, Charlie
No notes for this trip<i>No notes for this trip</i> USGS Gauge Data:
Lanagan (07188885)
Discharge: 43
Height: 1.22
<b>USGS Gauge Data:</b></br />Lanagan (07188885)<br />Discharge: 43<br />Height: 1.22
Source: FillmoreSource: Fillmore

A total of 1 rows are displayed.

Trip Summary for Indian Creek (Missouri), Lanagan (07188885)

Miles3.8
Trips1
People6
Dates1
Years1
Months1
Rows1
Sources1

Condition Descriptions

Fishing Conditions

Fish Species

Notes

Classic Trip List

The classic River Trips application is still available for use. It is updated with the new system using a data retrofit. It is no longer maintained. The original River Trips application is no longer updated (as of 1 Dec 2016) but can be checked for errors or for the condition of the data before it was converted to the new system.

Gauge Data Table

ObservationHeightDischargeMaximum
Discharge
Minimum
Discharge
Mean
Discharge
P05P10P20P25P50
(Median)
P75P80P90P95
2026-05-05 06:15 1.82 190 9170 (2022) 71 (2001) 751 73 94 117 137 256 654 824 1020 6760
2026-05-05 05:15 1.82 190 9170 (2022) 71 (2001) 751 73 94 117 137 256 654 824 1020 6760
2026-05-05 04:15 1.82 190 9170 (2022) 71 (2001) 751 73 94 117 137 256 654 824 1020 6760
2026-05-05 03:15 1.81 188 9170 (2022) 71 (2001) 751 73 94 117 137 256 654 824 1020 6760
2026-05-05 02:15 1.79 182 9170 (2022) 71 (2001) 751 73 94 117 137 256 654 824 1020 6760
2026-05-05 01:15 1.67 152 9170 (2022) 71 (2001) 751 73 94 117 137 256 654 824 1020 6760
2026-05-05 00:15 1.68 155 9170 (2022) 71 (2001) 751 73 94 117 137 256 654 824 1020 6760
2026-05-04 23:15 1.68 155 9170 (2022) 71 (2001) 751 73 94 117 137 256 654 824 1020 6760
2026-05-04 22:15 1.67 152 3930 (2019) 70 (2001) 518 73 96 125 140 295 663 683 883 3070
2026-05-04 21:15 1.67 152 3930 (2019) 70 (2001) 518 73 96 125 140 295 663 683 883 3070
2026-05-04 20:15 1.67 152 3930 (2019) 70 (2001) 518 73 96 125 140 295 663 683 883 3070
2026-05-04 19:15 1.68 155 3930 (2019) 70 (2001) 518 73 96 125 140 295 663 683 883 3070
2026-05-04 18:15 1.68 155 3930 (2019) 70 (2001) 518 73 96 125 140 295 663 683 883 3070
2026-05-04 17:15 1.68 155 3930 (2019) 70 (2001) 518 73 96 125 140 295 663 683 883 3070
2026-05-04 16:15 1.67 152 3930 (2019) 70 (2001) 518 73 96 125 140 295 663 683 883 3070
2026-05-04 15:15 1.69 157 3930 (2019) 70 (2001) 518 73 96 125 140 295 663 683 883 3070
2026-05-04 14:15 1.71 162 3930 (2019) 70 (2001) 518 73 96 125 140 295 663 683 883 3070
2026-05-04 13:15 1.71 162 3930 (2019) 70 (2001) 518 73 96 125 140 295 663 683 883 3070
2026-05-04 12:15 1.69 157 3930 (2019) 70 (2001) 518 73 96 125 140 295 663 683 883 3070
2026-05-04 11:15 1.70 160 3930 (2019) 70 (2001) 518 73 96 125 140 295 663 683 883 3070
2026-05-04 10:15 1.71 162 3930 (2019) 70 (2001) 518 73 96 125 140 295 663 683 883 3070
2026-05-04 09:15 1.72 165 3930 (2019) 70 (2001) 518 73 96 125 140 295 663 683 883 3070
2026-05-04 08:15 1.70 160 3930 (2019) 70 (2001) 518 73 96 125 140 295 663 683 883 3070
2026-05-04 07:15 1.72 165 3930 (2019) 70 (2001) 518 73 96 125 140 295 663 683 883 3070
2026-05-04 06:15 1.71 162 3930 (2019) 70 (2001) 518 73 96 125 140 295 663 683 883 3070
2026-05-04 05:15 1.71 162 3930 (2019) 70 (2001) 518 73 96 125 140 295 663 683 883 3070
2026-05-04 04:15 1.72 165 3930 (2019) 70 (2001) 518 73 96 125 140 295 663 683 883 3070
2026-05-04 03:15 1.72 165 3930 (2019) 70 (2001) 518 73 96 125 140 295 663 683 883 3070
2026-05-04 02:15 1.71 162 3930 (2019) 70 (2001) 518 73 96 125 140 295 663 683 883 3070
2026-05-04 01:15 1.72 165 3930 (2019) 70 (2001) 518 73 96 125 140 295 663 683 883 3070
2026-05-04 00:15 1.73 167 3930 (2019) 70 (2001) 518 73 96 125 140 295 663 683 883 3070
2026-05-03 23:15 1.72 165 3930 (2019) 70 (2001) 518 73 96 125 140 295 663 683 883 3070
2026-05-03 22:15 1.72 165 1310 (2017) 72 (2001) 419 75 99 135 149 281 602 750 982 1250
2026-05-03 21:15 1.73 167 1310 (2017) 72 (2001) 419 75 99 135 149 281 602 750 982 1250
2026-05-03 20:15 1.71 162 1310 (2017) 72 (2001) 419 75 99 135 149 281 602 750 982 1250
2026-05-03 19:15 1.74 169 1310 (2017) 72 (2001) 419 75 99 135 149 281 602 750 982 1250
2026-05-03 18:15 1.74 169 1310 (2017) 72 (2001) 419 75 99 135 149 281 602 750 982 1250
2026-05-03 17:15 1.75 172 1310 (2017) 72 (2001) 419 75 99 135 149 281 602 750 982 1250
2026-05-03 16:15 1.74 169 1310 (2017) 72 (2001) 419 75 99 135 149 281 602 750 982 1250
2026-05-03 15:15 1.74 169 1310 (2017) 72 (2001) 419 75 99 135 149 281 602 750 982 1250
2026-05-03 14:15 1.75 172 1310 (2017) 72 (2001) 419 75 99 135 149 281 602 750 982 1250
2026-05-03 13:15 1.76 175 1310 (2017) 72 (2001) 419 75 99 135 149 281 602 750 982 1250
2026-05-03 12:15 1.75 172 1310 (2017) 72 (2001) 419 75 99 135 149 281 602 750 982 1250
2026-05-03 11:15 1.75 172 1310 (2017) 72 (2001) 419 75 99 135 149 281 602 750 982 1250
2026-05-03 10:15 1.76 175 1310 (2017) 72 (2001) 419 75 99 135 149 281 602 750 982 1250
2026-05-03 09:15 1.75 172 1310 (2017) 72 (2001) 419 75 99 135 149 281 602 750 982 1250
2026-05-03 08:15 1.76 175 1310 (2017) 72 (2001) 419 75 99 135 149 281 602 750 982 1250
2026-05-03 07:15 1.76 175 1310 (2017) 72 (2001) 419 75 99 135 149 281 602 750 982 1250
2026-05-03 06:15 1.77 177 1310 (2017) 72 (2001) 419 75 99 135 149 281 602 750 982 1250
2026-05-03 05:15 1.76 175 1310 (2017) 72 (2001) 419 75 99 135 149 281 602 750 982 1250
2026-05-03 04:15 1.77 177 1310 (2017) 72 (2001) 419 75 99 135 149 281 602 750 982 1250
2026-05-03 03:15 1.78 180 1310 (2017) 72 (2001) 419 75 99 135 149 281 602 750 982 1250
2026-05-03 02:15 1.76 175 1310 (2017) 72 (2001) 419 75 99 135 149 281 602 750 982 1250
2026-05-03 01:15 1.78 180 1310 (2017) 72 (2001) 419 75 99 135 149 281 602 750 982 1250
2026-05-03 00:15 1.76 175 1310 (2017) 72 (2001) 419 75 99 135 149 281 602 750 982 1250
2026-05-02 23:15 1.78 180 1310 (2017) 72 (2001) 419 75 99 135 149 281 602 750 982 1250
2026-05-02 22:15 1.79 182 1720 (2017) 73 (2001) 488 76 103 148 159 297 661 920 1330 1690
2026-05-02 21:15 1.78 180 1720 (2017) 73 (2001) 488 76 103 148 159 297 661 920 1330 1690
2026-05-02 20:15 1.78 180 1720 (2017) 73 (2001) 488 76 103 148 159 297 661 920 1330 1690
2026-05-02 19:15 1.78 180 1720 (2017) 73 (2001) 488 76 103 148 159 297 661 920 1330 1690
2026-05-02 18:15 1.78 180 1720 (2017) 73 (2001) 488 76 103 148 159 297 661 920 1330 1690
2026-05-02 17:15 1.80 185 1720 (2017) 73 (2001) 488 76 103 148 159 297 661 920 1330 1690
2026-05-02 16:15 1.79 182 1720 (2017) 73 (2001) 488 76 103 148 159 297 661 920 1330 1690
2026-05-02 15:15 1.79 182 1720 (2017) 73 (2001) 488 76 103 148 159 297 661 920 1330 1690
2026-05-02 14:15 1.81 188 1720 (2017) 73 (2001) 488 76 103 148 159 297 661 920 1330 1690
2026-05-02 13:15 1.80 185 1720 (2017) 73 (2001) 488 76 103 148 159 297 661 920 1330 1690
2026-05-02 12:15 1.82 190 1720 (2017) 73 (2001) 488 76 103 148 159 297 661 920 1330 1690
2026-05-02 11:15 1.81 188 1720 (2017) 73 (2001) 488 76 103 148 159 297 661 920 1330 1690
2026-05-02 10:15 1.82 190 1720 (2017) 73 (2001) 488 76 103 148 159 297 661 920 1330 1690
2026-05-02 09:15 1.82 190 1720 (2017) 73 (2001) 488 76 103 148 159 297 661 920 1330 1690
2026-05-02 08:15 1.83 193 1720 (2017) 73 (2001) 488 76 103 148 159 297 661 920 1330 1690
2026-05-02 07:15 1.82 190 1720 (2017) 73 (2001) 488 76 103 148 159 297 661 920 1330 1690
2026-05-02 06:15 1.83 193 1720 (2017) 73 (2001) 488 76 103 148 159 297 661 920 1330 1690
2026-05-02 05:15 1.83 193 1720 (2017) 73 (2001) 488 76 103 148 159 297 661 920 1330 1690
2026-05-02 04:15 1.83 193 1720 (2017) 73 (2001) 488 76 103 148 159 297 661 920 1330 1690
2026-05-02 03:15 1.83 193 1720 (2017) 73 (2001) 488 76 103 148 159 297 661 920 1330 1690
2026-05-02 02:15 1.83 193 1720 (2017) 73 (2001) 488 76 103 148 159 297 661 920 1330 1690
2026-05-02 01:15 1.84 196 1720 (2017) 73 (2001) 488 76 103 148 159 297 661 920 1330 1690
2026-05-02 00:15 1.82 190 1720 (2017) 73 (2001) 488 76 103 148 159 297 661 920 1330 1690
2026-05-01 23:15 1.84 196 1720 (2017) 73 (2001) 488 76 103 148 159 297 661 920 1330 1690
2026-05-01 22:15 1.83 193 5940 (2019) 75 (2001) 762 78 105 149 154 302 737 892 2270 5210
2026-05-01 21:15 1.84 196 5940 (2019) 75 (2001) 762 78 105 149 154 302 737 892 2270 5210
2026-05-01 20:15 1.86 201 5940 (2019) 75 (2001) 762 78 105 149 154 302 737 892 2270 5210
2026-05-01 19:15 1.85 198 5940 (2019) 75 (2001) 762 78 105 149 154 302 737 892 2270 5210
2026-05-01 18:15 1.85 198 5940 (2019) 75 (2001) 762 78 105 149 154 302 737 892 2270 5210
2026-05-01 17:15 1.87 204 5940 (2019) 75 (2001) 762 78 105 149 154 302 737 892 2270 5210
2026-05-01 16:15 1.85 198 5940 (2019) 75 (2001) 762 78 105 149 154 302 737 892 2270 5210
2026-05-01 15:15 1.86 201 5940 (2019) 75 (2001) 762 78 105 149 154 302 737 892 2270 5210
2026-05-01 14:15 1.86 201 5940 (2019) 75 (2001) 762 78 105 149 154 302 737 892 2270 5210
2026-05-01 13:15 1.88 207 5940 (2019) 75 (2001) 762 78 105 149 154 302 737 892 2270 5210
2026-05-01 12:15 1.87 204 5940 (2019) 75 (2001) 762 78 105 149 154 302 737 892 2270 5210
2026-05-01 11:15 1.88 207 5940 (2019) 75 (2001) 762 78 105 149 154 302 737 892 2270 5210
2026-05-01 10:15 1.88 207 5940 (2019) 75 (2001) 762 78 105 149 154 302 737 892 2270 5210
2026-05-01 09:15 1.89 209 5940 (2019) 75 (2001) 762 78 105 149 154 302 737 892 2270 5210
2026-05-01 08:15 1.89 209 5940 (2019) 75 (2001) 762 78 105 149 154 302 737 892 2270 5210
2026-05-01 07:15 1.88 207 5940 (2019) 75 (2001) 762 78 105 149 154 302 737 892 2270 5210
2026-05-01 06:15 1.91 215 5940 (2019) 75 (2001) 762 78 105 149 154 302 737 892 2270 5210
2026-05-01 05:15 1.90 212 5940 (2019) 75 (2001) 762 78 105 149 154 302 737 892 2270 5210
2026-05-01 04:15 1.90 212 5940 (2019) 75 (2001) 762 78 105 149 154 302 737 892 2270 5210
2026-05-01 03:15 1.90 212 5940 (2019) 75 (2001) 762 78 105 149 154 302 737 892 2270 5210
2026-05-01 02:15 1.89 209 5940 (2019) 75 (2001) 762 78 105 149 154 302 737 892 2270 5210
2026-05-01 01:15 1.90 212 5940 (2019) 75 (2001) 762 78 105 149 154 302 737 892 2270 5210
2026-05-01 00:15 1.93 221 5940 (2019) 75 (2001) 762 78 105 149 154 302 737 892 2270 5210
2026-04-30 23:15 1.90 212 5940 (2019) 75 (2001) 762 78 105 149 154 302 737 892 2270 5210
2026-04-30 22:15 1.92 218 11100 (2017) 76 (2001) 862 79 93 138 158 327 749 796 1200 8180
2026-04-30 21:15 1.91 215 11100 (2017) 76 (2001) 862 79 93 138 158 327 749 796 1200 8180
2026-04-30 20:15 1.92 218 11100 (2017) 76 (2001) 862 79 93 138 158 327 749 796 1200 8180
2026-04-30 19:15 1.93 221 11100 (2017) 76 (2001) 862 79 93 138 158 327 749 796 1200 8180
2026-04-30 18:15 1.92 218 11100 (2017) 76 (2001) 862 79 93 138 158 327 749 796 1200 8180
2026-04-30 17:15 1.92 218 11100 (2017) 76 (2001) 862 79 93 138 158 327 749 796 1200 8180
2026-04-30 16:15 1.93 221 11100 (2017) 76 (2001) 862 79 93 138 158 327 749 796 1200 8180
2026-04-30 15:15 1.94 224 11100 (2017) 76 (2001) 862 79 93 138 158 327 749 796 1200 8180
2026-04-30 14:15 1.93 221 11100 (2017) 76 (2001) 862 79 93 138 158 327 749 796 1200 8180
2026-04-30 13:15 1.94 224 11100 (2017) 76 (2001) 862 79 93 138 158 327 749 796 1200 8180
2026-04-30 12:15 1.94 224 11100 (2017) 76 (2001) 862 79 93 138 158 327 749 796 1200 8180
2026-04-30 11:15 1.96 230 11100 (2017) 76 (2001) 862 79 93 138 158 327 749 796 1200 8180
2026-04-30 10:15 1.95 227 11100 (2017) 76 (2001) 862 79 93 138 158 327 749 796 1200 8180
2026-04-30 09:15 1.95 227 11100 (2017) 76 (2001) 862 79 93 138 158 327 749 796 1200 8180
2026-04-30 08:15 1.97 233 11100 (2017) 76 (2001) 862 79 93 138 158 327 749 796 1200 8180
2026-04-30 07:15 1.96 230 11100 (2017) 76 (2001) 862 79 93 138 158 327 749 796 1200 8180
2026-04-30 06:15 1.95 227 11100 (2017) 76 (2001) 862 79 93 138 158 327 749 796 1200 8180
2026-04-30 05:15 1.97 233 11100 (2017) 76 (2001) 862 79 93 138 158 327 749 796 1200 8180
2026-04-30 04:15 1.97 233 11100 (2017) 76 (2001) 862 79 93 138 158 327 749 796 1200 8180
2026-04-30 03:15 1.97 233 11100 (2017) 76 (2001) 862 79 93 138 158 327 749 796 1200 8180
2026-04-30 02:15 1.98 236 11100 (2017) 76 (2001) 862 79 93 138 158 327 749 796 1200 8180
2026-04-30 01:15 1.99 239 11100 (2017) 76 (2001) 862 79 93 138 158 327 749 796 1200 8180
2026-04-30 00:15 1.97 233 11100 (2017) 76 (2001) 862 79 93 138 158 327 749 796 1200 8180
2026-04-29 23:15 1.98 236 11100 (2017) 76 (2001) 862 79 93 138 158 327 749 796 1200 8180
2026-04-29 22:15 1.98 236 17400 (2017) 79 (2001) 1100 82 99 136 160 239 633 837 1350 12600
2026-04-29 21:15 1.99 239 17400 (2017) 79 (2001) 1100 82 99 136 160 239 633 837 1350 12600
2026-04-29 20:15 2.00 242 17400 (2017) 79 (2001) 1100 82 99 136 160 239 633 837 1350 12600
2026-04-29 19:15 2.00 242 17400 (2017) 79 (2001) 1100 82 99 136 160 239 633 837 1350 12600
2026-04-29 18:15 2.00 242 17400 (2017) 79 (2001) 1100 82 99 136 160 239 633 837 1350 12600
2026-04-29 17:15 2.00 242 17400 (2017) 79 (2001) 1100 82 99 136 160 239 633 837 1350 12600
2026-04-29 16:15 2.02 248 17400 (2017) 79 (2001) 1100 82 99 136 160 239 633 837 1350 12600
2026-04-29 15:15 2.01 245 17400 (2017) 79 (2001) 1100 82 99 136 160 239 633 837 1350 12600
2026-04-29 14:15 2.01 245 17400 (2017) 79 (2001) 1100 82 99 136 160 239 633 837 1350 12600
2026-04-29 13:15 2.02 248 17400 (2017) 79 (2001) 1100 82 99 136 160 239 633 837 1350 12600
2026-04-29 12:15 2.03 251 17400 (2017) 79 (2001) 1100 82 99 136 160 239 633 837 1350 12600
2026-04-29 11:15 2.03 251 17400 (2017) 79 (2001) 1100 82 99 136 160 239 633 837 1350 12600
2026-04-29 10:15 2.04 254 17400 (2017) 79 (2001) 1100 82 99 136 160 239 633 837 1350 12600
2026-04-29 09:15 2.04 254 17400 (2017) 79 (2001) 1100 82 99 136 160 239 633 837 1350 12600
2026-04-29 08:15 2.04 254 17400 (2017) 79 (2001) 1100 82 99 136 160 239 633 837 1350 12600
2026-04-29 07:15 2.04 254 17400 (2017) 79 (2001) 1100 82 99 136 160 239 633 837 1350 12600
2026-04-29 06:15 2.06 261 17400 (2017) 79 (2001) 1100 82 99 136 160 239 633 837 1350 12600
2026-04-29 05:15 2.06 261 17400 (2017) 79 (2001) 1100 82 99 136 160 239 633 837 1350 12600
2026-04-29 04:15 2.05 257 17400 (2017) 79 (2001) 1100 82 99 136 160 239 633 837 1350 12600
2026-04-29 03:15 2.06 261 17400 (2017) 79 (2001) 1100 82 99 136 160 239 633 837 1350 12600
2026-04-29 02:15 2.07 264 17400 (2017) 79 (2001) 1100 82 99 136 160 239 633 837 1350 12600
2026-04-29 01:15 2.08 267 17400 (2017) 79 (2001) 1100 82 99 136 160 239 633 837 1350 12600
2026-04-29 00:15 2.06 261 17400 (2017) 79 (2001) 1100 82 99 136 160 239 633 837 1350 12600
2026-04-28 23:15 2.06 261 17400 (2017) 79 (2001) 1100 82 99 136 160 239 633 837 1350 12600
2026-04-28 22:15 2.05 257 1770 (2011) 81 (2001) 384 83 92 133 144 207 583 665 861 1530
2026-04-28 21:15 2.02 248 1770 (2011) 81 (2001) 384 83 92 133 144 207 583 665 861 1530
2026-04-28 20:15 2.03 251 1770 (2011) 81 (2001) 384 83 92 133 144 207 583 665 861 1530
2026-04-28 19:15 2.00 242 1770 (2011) 81 (2001) 384 83 92 133 144 207 583 665 861 1530
2026-04-28 18:15 2.00 242 1770 (2011) 81 (2001) 384 83 92 133 144 207 583 665 861 1530
2026-04-28 17:15 2.00 242 1770 (2011) 81 (2001) 384 83 92 133 144 207 583 665 861 1530
2026-04-28 16:15 2.01 245 1770 (2011) 81 (2001) 384 83 92 133 144 207 583 665 861 1530
2026-04-28 15:15 2.02 248 1770 (2011) 81 (2001) 384 83 92 133 144 207 583 665 861 1530
2026-04-28 14:15 2.00 242 1770 (2011) 81 (2001) 384 83 92 133 144 207 583 665 861 1530
2026-04-28 13:15 1.98 236 1770 (2011) 81 (2001) 384 83 92 133 144 207 583 665 861 1530
2026-04-28 12:15 1.98 236 1770 (2011) 81 (2001) 384 83 92 133 144 207 583 665 861 1530
2026-04-28 11:15 2.00 242 1770 (2011) 81 (2001) 384 83 92 133 144 207 583 665 861 1530
2026-04-28 10:15 1.99 239 1770 (2011) 81 (2001) 384 83 92 133 144 207 583 665 861 1530
2026-04-28 09:15 2.00 242 1770 (2011) 81 (2001) 384 83 92 133 144 207 583 665 861 1530
2026-04-28 08:15 2.01 245 1770 (2011) 81 (2001) 384 83 92 133 144 207 583 665 861 1530
2026-04-28 07:15 2.02 248 1770 (2011) 81 (2001) 384 83 92 133 144 207 583 665 861 1530
2026-04-28 06:15 2.02 248 1770 (2011) 81 (2001) 384 83 92 133 144 207 583 665 861 1530
2026-04-28 05:15 2.03 251 1770 (2011) 81 (2001) 384 83 92 133 144 207 583 665 861 1530
2026-04-28 04:15 2.03 251 1770 (2011) 81 (2001) 384 83 92 133 144 207 583 665 861 1530
2026-04-28 03:15 2.02 248 1770 (2011) 81 (2001) 384 83 92 133 144 207 583 665 861 1530
2026-04-28 02:15 2.04 254 1770 (2011) 81 (2001) 384 83 92 133 144 207 583 665 861 1530
2026-04-28 01:15 2.02 248 1770 (2011) 81 (2001) 384 83 92 133 144 207 583 665 861 1530
2026-04-28 00:15 2.03 251 1770 (2011) 81 (2001) 384 83 92 133 144 207 583 665 861 1530
2026-04-27 23:15 2.04 254 1770 (2011) 81 (2001) 384 83 92 133 144 207 583 665 861 1530

A total of 176 rows are displayed for years 2001 through 2025.